createdAt,value
2022-08-10T00:00:57.878Z,3.75
2022-08-10T00:03:27.377Z,3.50
2022-08-10T00:05:56.672Z,3.63
2022-08-10T00:08:26.063Z,3.80
2022-08-10T00:10:54.348Z,3.60
2022-08-10T00:13:22.682Z,3.40
2022-08-10T00:15:54.108Z,3.50
2022-08-10T00:18:34.401Z,3.58
2022-08-10T00:21:06.288Z,3.55
2022-08-10T00:23:34.418Z,3.53
2022-08-10T00:26:02.577Z,3.40
2022-08-10T00:28:30.745Z,3.38
2022-08-10T00:30:58.911Z,3.25
2022-08-10T00:33:27.039Z,3.40
2022-08-10T00:35:55.152Z,4.00
2022-08-10T00:38:24.728Z,3.97
2022-08-10T00:40:52.822Z,3.80
2022-08-10T00:43:23.193Z,3.90
2022-08-10T00:45:59.114Z,3.63
2022-08-10T00:48:29.476Z,3.63
2022-08-10T00:50:57.938Z,3.53
2022-08-10T00:53:27.606Z,3.80
2022-08-10T00:56:35.234Z,3.95
2022-08-10T00:58:43.859Z,3.75
2022-08-10T01:01:23.550Z,3.63
2022-08-10T01:04:39.692Z,3.67
2022-08-10T01:06:53.906Z,3.50
2022-08-10T01:09:26.991Z,3.50
2022-08-10T01:12:37.922Z,3.60
2022-08-10T01:14:52.212Z,3.65
2022-08-10T01:17:23.050Z,3.80
2022-08-10T01:20:30.013Z,3.30
2022-08-10T01:23:32.784Z,3.30
2022-08-10T01:26:31.047Z,3.50
2022-08-10T01:29:19.415Z,3.30
2022-08-10T01:31:51.252Z,3.28
2022-08-10T01:34:24.761Z,3.70
2022-08-10T01:36:54.518Z,3.45
2022-08-10T01:39:24.501Z,3.40
2022-08-10T01:41:55.354Z,3.33
2022-08-10T01:44:26.655Z,4.00
2022-08-10T01:47:22.216Z,3.30
2022-08-10T01:49:50.005Z,3.20
2022-08-10T01:52:18.742Z,3.15
2022-08-10T01:54:47.222Z,3.05
2022-08-10T01:57:15.338Z,3.60
2022-08-10T01:59:58.816Z,3.38
2022-08-10T02:02:34.706Z,3.30
2022-08-10T02:05:03.456Z,3.22
2022-08-10T02:07:31.598Z,3.20
2022-08-10T02:10:02.927Z,3.50
2022-08-10T02:12:32.525Z,3.30
2022-08-10T02:15:02.177Z,3.60
2022-08-10T02:17:57.375Z,3.60
2022-08-10T02:20:26.043Z,3.30
2022-08-10T02:22:56.545Z,3.60
2022-08-10T02:25:42.715Z,3.45
2022-08-10T02:28:27.123Z,3.30
2022-08-10T02:31:00.789Z,3.08
2022-08-10T02:33:29.023Z,3.50
2022-08-10T02:35:58.546Z,3.15
2022-08-10T02:38:58.124Z,3.20
2022-08-10T02:45:15.317Z,3.25
2022-08-10T02:45:21.243Z,3.30
2022-08-10T02:46:59.956Z,3.40
2022-08-10T02:49:30.459Z,3.10
2022-08-10T02:52:08.651Z,3.38
2022-08-10T02:54:39.784Z,3.40
2022-08-10T02:57:10.254Z,3.30
2022-08-10T02:59:40.775Z,3.38
2022-08-10T03:02:12.084Z,3.17
2022-08-10T03:04:56.251Z,3.40
2022-08-10T03:07:43.625Z,3.33
2022-08-10T03:10:14.869Z,3.40
2022-08-10T03:12:43.461Z,3.60
2022-08-10T03:15:15.768Z,3.17
2022-08-10T03:17:58.393Z,3.35
2022-08-10T03:20:36.908Z,3.50
2022-08-10T03:23:10.778Z,3.13
2022-08-10T03:25:38.947Z,3.40
2022-08-10T03:28:07.297Z,3.10
2022-08-10T03:30:35.421Z,3.40
2022-08-10T03:33:04.434Z,3.40
2022-08-10T03:35:32.602Z,3.40
2022-08-10T03:38:00.792Z,3.40
2022-08-10T03:40:44.832Z,3.42
2022-08-10T03:43:16.816Z,3.10
2022-08-10T03:45:54.357Z,3.20
2022-08-10T03:48:24.588Z,3.38
2022-08-10T03:51:01.511Z,3.40
2022-08-10T03:54:04.538Z,3.00
2022-08-10T03:56:29.506Z,3.45
2022-08-10T03:58:59.511Z,3.05
2022-08-10T04:02:45.980Z,3.22
2022-08-10T04:04:20.984Z,3.20
2022-08-10T04:06:54.844Z,3.50
2022-08-10T04:09:23.720Z,3.55
2022-08-10T04:11:53.271Z,3.45
2022-08-10T04:14:47.304Z,3.25
2022-08-10T04:17:13.801Z,3.10
2022-08-10T04:19:45.849Z,3.30
2022-08-10T04:22:16.663Z,3.30
2022-08-10T04:24:44.850Z,3.28
2022-08-10T04:27:14.348Z,3.20
2022-08-10T04:29:42.639Z,2.92
2022-08-10T04:32:11.033Z,3.42
2022-08-10T04:34:39.852Z,3.20
2022-08-10T04:37:09.204Z,3.30
2022-08-10T04:39:37.569Z,3.13
2022-08-10T04:42:06.102Z,3.15
2022-08-10T04:44:35.599Z,3.42
2022-08-10T04:47:03.798Z,2.90
2022-08-10T04:49:54.769Z,2.97
2022-08-10T04:52:20.816Z,3.30
2022-08-10T04:54:48.961Z,3.03
2022-08-10T04:57:17.615Z,2.92
2022-08-10T04:59:47.133Z,2.60
2022-08-10T05:02:30.798Z,3.28
2022-08-10T05:05:00.180Z,3.08
2022-08-10T05:07:28.283Z,3.03
2022-08-10T05:10:05.007Z,2.90
2022-08-10T05:12:36.308Z,3.05
2022-08-10T05:15:08.984Z,3.03
2022-08-10T05:17:37.281Z,3.03
2022-08-10T05:20:07.216Z,2.88
2022-08-10T05:22:37.062Z,3.00
2022-08-10T05:25:06.437Z,3.05
2022-08-10T05:27:34.653Z,2.90
2022-08-10T05:30:03.764Z,2.95
2022-08-10T05:32:55.191Z,2.58
2022-08-10T05:35:22.035Z,2.95
2022-08-10T05:38:09.489Z,3.00
2022-08-10T05:40:39.620Z,2.90
2022-08-10T05:43:07.770Z,3.00
2022-08-10T05:46:18.652Z,2.85
2022-08-10T05:48:53.869Z,2.65
2022-08-10T05:51:13.607Z,2.88
2022-08-10T05:54:02.965Z,2.80
2022-08-10T05:56:53.235Z,2.85
2022-08-10T06:00:33.083Z,2.70
2022-08-10T06:02:31.545Z,2.83
2022-08-10T06:04:58.262Z,2.60
2022-08-10T06:07:27.188Z,2.90
2022-08-10T06:09:58.952Z,2.75
2022-08-10T06:12:30.144Z,3.08
2022-08-10T06:15:05.809Z,2.60
2022-08-10T06:17:38.323Z,2.50
2022-08-10T06:20:09.188Z,2.50
2022-08-10T06:22:37.462Z,2.60
2022-08-10T06:25:38.216Z,2.50
2022-08-10T06:27:54.958Z,2.42
2022-08-10T06:30:23.248Z,2.38
2022-08-10T06:32:51.515Z,2.90
2022-08-10T06:35:21.196Z,2.63
2022-08-10T06:37:51.318Z,2.58
2022-08-10T06:40:20.292Z,2.53
2022-08-10T06:42:49.349Z,2.30
2022-08-10T06:45:18.977Z,2.40
2022-08-10T06:47:48.651Z,2.88
2022-08-10T06:50:44.835Z,2.58
2022-08-10T06:53:09.014Z,2.70
2022-08-10T06:55:49.505Z,2.60
2022-08-10T06:58:18.401Z,2.70
2022-08-10T07:00:52.354Z,2.30
2022-08-10T07:03:21.032Z,2.50
2022-08-10T07:05:51.377Z,2.42
2022-08-10T07:08:22.126Z,2.33
2022-08-10T07:10:50.233Z,2.35
2022-08-10T07:14:16.647Z,2.42
2022-08-10T07:16:11.678Z,2.30
2022-08-10T07:18:39.892Z,2.95
2022-08-10T07:21:08.065Z,4.13
2022-08-10T07:23:58.184Z,3.45
2022-08-10T07:26:25.781Z,3.00
2022-08-10T07:28:53.910Z,2.83
2022-08-10T07:31:54.584Z,5.28
2022-08-10T07:34:10.333Z,4.50
2022-08-10T07:36:38.564Z,4.53
2022-08-10T07:39:08.167Z,4.10
2022-08-10T07:41:44.187Z,6.97
2022-08-10T07:44:12.457Z,6.22
2022-08-10T07:46:42.382Z,4.38
2022-08-10T07:49:19.687Z,4.70
2022-08-10T07:51:54.477Z,4.55
2022-08-10T07:54:24.673Z,3.80
2022-08-10T07:56:54.024Z,3.65
2022-08-10T07:59:26.130Z,3.67
2022-08-10T08:01:55.623Z,3.80
2022-08-10T08:04:24.114Z,3.97
2022-08-10T08:06:52.809Z,3.67
2022-08-10T08:09:21.047Z,3.45
2022-08-10T08:11:50.538Z,3.45
2022-08-10T08:14:18.676Z,3.10
2022-08-10T08:16:47.641Z,2.90
2022-08-10T08:19:37.974Z,2.78
2022-08-10T08:24:05.725Z,2.50
2022-08-10T08:24:52.694Z,2.55
2022-08-10T08:27:22.331Z,2.60
2022-08-10T08:29:51.343Z,2.65
2022-08-10T08:32:22.336Z,4.32
2022-08-10T08:34:51.414Z,3.85
2022-08-10T08:38:31.068Z,3.80
2022-08-10T08:40:10.461Z,3.83
2022-08-10T08:43:10.474Z,3.10
2022-08-10T08:45:48.102Z,2.58
2022-08-10T08:48:31.250Z,2.72
2022-08-10T08:51:08.590Z,1.95
2022-08-10T08:54:01.777Z,2.38
2022-08-10T08:56:35.906Z,2.38
2022-08-10T08:59:21.200Z,2.10
2022-08-10T09:01:59.617Z,2.20
2022-08-10T09:04:37.912Z,1.95
2022-08-10T09:08:01.043Z,2.15
2022-08-10T09:10:20.763Z,1.98
2022-08-10T09:12:54.524Z,2.20
2022-08-10T09:15:40.262Z,1.80
2022-08-10T09:18:13.790Z,1.63
2022-08-10T09:20:43.802Z,1.60
2022-08-10T09:23:15.583Z,1.65
2022-08-10T09:25:45.766Z,1.63
2022-08-10T09:28:18.052Z,1.63
2022-08-10T09:31:18.647Z,1.60
2022-08-10T09:36:20.578Z,1.60
2022-08-10T09:36:42.407Z,1.60
2022-08-10T09:40:56.818Z,1.50
2022-08-10T09:42:14.616Z,1.60
2022-08-10T09:44:58.331Z,1.58
2022-08-10T09:48:01.237Z,1.50
2022-08-10T09:50:25.887Z,1.80
2022-08-10T09:53:03.372Z,1.80
2022-08-10T09:56:17.138Z,1.77
2022-08-10T09:58:39.532Z,1.70
2022-08-10T10:01:52.883Z,1.90
2022-08-10T10:04:06.150Z,1.65
2022-08-10T10:06:38.165Z,1.70
2022-08-10T10:09:11.019Z,1.80
2022-08-10T10:11:45.498Z,1.70
2022-08-10T10:14:17.311Z,1.83
2022-08-10T10:16:53.636Z,2.10
2022-08-10T10:19:41.796Z,1.90
2022-08-10T10:22:21.992Z,1.90
2022-08-10T10:24:53.697Z,1.80
2022-08-10T10:27:25.750Z,1.80
2022-08-10T10:29:59.252Z,1.80
2022-08-10T10:32:37.067Z,1.90
2022-08-10T10:35:10.874Z,1.83
2022-08-10T10:38:01.980Z,1.90
2022-08-10T10:40:28.593Z,1.85
2022-08-10T10:43:02.629Z,1.80
2022-08-10T10:45:40.315Z,1.63
2022-08-10T10:48:24.206Z,1.73
2022-08-10T10:51:04.872Z,1.80
2022-08-10T10:53:36.699Z,1.90
2022-08-10T10:56:15.909Z,1.70
2022-08-10T10:58:50.156Z,1.67
2022-08-10T11:01:24.723Z,1.70
2022-08-10T11:04:02.392Z,1.90
2022-08-10T11:06:40.939Z,1.85
2022-08-10T11:10:03.523Z,1.60
2022-08-10T11:12:04.781Z,1.80
2022-08-10T11:14:37.399Z,1.77
2022-08-10T11:17:09.797Z,1.80
2022-08-10T11:20:01.462Z,1.75
2022-08-10T11:22:36.701Z,1.55
2022-08-10T11:25:09.696Z,1.70
2022-08-10T11:27:44.112Z,1.73
2022-08-10T11:30:14.240Z,1.65
2022-08-10T11:32:53.912Z,1.70
2022-08-10T11:35:31.588Z,1.65
2022-08-10T11:38:29.786Z,1.83
2022-08-10T11:41:14.644Z,1.50
2022-08-10T11:43:55.155Z,1.60
2022-08-10T11:46:28.631Z,1.75
2022-08-10T11:49:04.104Z,1.75
2022-08-10T11:51:40.452Z,1.60
2022-08-10T11:54:14.370Z,1.77
2022-08-10T11:56:48.120Z,1.50
2022-08-10T11:59:33.958Z,1.55
2022-08-10T12:02:02.181Z,1.60
2022-08-10T12:04:30.355Z,1.60
2022-08-10T12:06:58.734Z,1.40
2022-08-10T12:10:06.059Z,1.60
2022-08-10T12:12:16.980Z,1.58
2022-08-10T12:14:51.285Z,1.63
2022-08-10T12:17:21.904Z,1.65
2022-08-10T12:19:59.320Z,1.50
2022-08-10T12:22:34.385Z,1.40
2022-08-10T12:25:06.957Z,1.42
2022-08-10T12:27:38.709Z,1.60
2022-08-10T12:30:08.027Z,1.30
2022-08-10T12:32:41.754Z,1.48
2022-08-10T12:35:17.194Z,1.50
2022-08-10T12:37:56.926Z,1.70
2022-08-10T12:40:36.935Z,1.52
2022-08-10T12:44:04.301Z,1.42
2022-08-10T12:46:06.999Z,1.58
2022-08-10T12:48:37.381Z,1.33
2022-08-10T12:51:09.386Z,1.70
2022-08-10T12:53:45.722Z,1.55
2022-08-10T12:56:24.388Z,1.40
2022-08-10T12:58:57.627Z,1.40
2022-08-10T13:01:27.567Z,1.30
2022-08-10T13:04:20.874Z,1.30
2022-08-10T13:06:52.072Z,1.50
2022-08-10T13:09:22.593Z,1.33
2022-08-10T13:12:35.531Z,1.60
2022-08-10T13:14:49.008Z,2.05
2022-08-10T13:17:22.337Z,1.50
2022-08-10T13:19:56.152Z,1.40
2022-08-10T13:22:28.809Z,1.40
2022-08-10T13:25:00.136Z,1.40
2022-08-10T13:28:02.740Z,1.40
2022-08-10T13:30:37.451Z,1.50
2022-08-10T13:33:06.783Z,1.60
2022-08-10T13:35:35.381Z,1.65
2022-08-10T13:38:03.731Z,1.48
2022-08-10T13:40:33.684Z,1.30
2022-08-10T13:43:04.611Z,1.35
2022-08-10T13:45:32.726Z,1.50
2022-08-10T13:48:09.347Z,1.80
2022-08-10T13:50:37.752Z,1.63
2022-08-10T13:53:13.345Z,1.70
2022-08-10T13:55:54.439Z,1.75
2022-08-10T13:58:27.488Z,1.38
2022-08-10T14:00:56.348Z,1.70
2022-08-10T14:03:24.574Z,1.48
2022-08-10T14:05:53.437Z,1.60
2022-08-10T14:08:25.059Z,1.50
2022-08-10T14:11:10.061Z,1.50
2022-08-10T14:13:45.463Z,1.70
2022-08-10T14:16:13.639Z,1.40
2022-08-10T14:18:44.902Z,1.80
2022-08-10T14:21:13.331Z,1.55
2022-08-10T14:23:41.861Z,1.85
2022-08-10T14:26:19.088Z,1.65
2022-08-10T14:28:51.361Z,1.50
2022-08-10T14:31:22.129Z,1.60
2022-08-10T14:33:53.405Z,1.70
2022-08-10T14:36:31.062Z,1.50
2022-08-10T14:38:59.555Z,1.50
2022-08-10T14:42:03.261Z,1.63
2022-08-10T14:44:19.421Z,1.77
2022-08-10T14:46:51.592Z,1.65
2022-08-10T14:49:26.642Z,1.92
2022-08-10T14:51:59.874Z,1.65
2022-08-10T14:54:29.593Z,1.88
2022-08-10T14:56:58.214Z,2.08
2022-08-10T15:00:20.786Z,1.63
2022-08-10T15:02:39.950Z,1.70
2022-08-10T15:05:09.049Z,1.60
2022-08-10T15:07:38.000Z,1.80
2022-08-10T15:10:08.047Z,2.10
2022-08-10T15:12:38.297Z,1.95
2022-08-10T15:15:09.675Z,1.63
2022-08-10T15:17:43.040Z,1.80
2022-08-10T15:20:20.332Z,2.05
2022-08-10T15:22:50.658Z,1.88
2022-08-10T15:25:24.831Z,1.90
2022-08-10T15:27:56.343Z,1.95
2022-08-10T15:30:31.060Z,1.70
2022-08-10T15:33:21.261Z,1.80
2022-08-10T15:36:24.420Z,1.80
2022-08-10T15:38:59.150Z,1.98
2022-08-10T15:41:58.582Z,1.80
2022-08-10T15:44:24.812Z,1.60
2022-08-10T15:46:57.646Z,1.77
2022-08-10T15:49:27.221Z,1.70
2022-08-10T15:52:01.877Z,1.80
2022-08-10T15:54:33.266Z,1.60
2022-08-10T15:57:03.600Z,1.75
2022-08-10T15:59:33.283Z,1.77
2022-08-10T16:02:15.569Z,1.60
2022-08-10T16:04:49.221Z,1.50
2022-08-10T16:07:19.839Z,1.45
2022-08-10T16:10:22.466Z,1.70
2022-08-10T16:12:42.135Z,1.98
2022-08-10T16:15:13.565Z,1.90
2022-08-10T16:17:55.595Z,1.85
2022-08-10T16:20:27.821Z,1.90
2022-08-10T16:23:00.764Z,2.00
2022-08-10T16:25:48.493Z,1.98
2022-08-10T16:28:23.011Z,1.95
2022-08-10T16:30:54.367Z,2.30
2022-08-10T16:33:27.568Z,2.25
2022-08-10T16:36:16.891Z,2.30
2022-08-10T16:38:46.238Z,2.50
2022-08-10T16:42:00.239Z,2.30
2022-08-10T16:44:02.531Z,2.00
2022-08-10T16:46:30.687Z,2.50
2022-08-10T16:49:00.223Z,2.15
2022-08-10T16:51:28.362Z,2.20
2022-08-10T16:53:56.467Z,2.10
2022-08-10T16:56:25.211Z,2.47
2022-08-10T16:58:55.293Z,2.25
2022-08-10T17:01:25.057Z,2.30
2022-08-10T17:04:08.087Z,2.20
2022-08-10T17:06:40.122Z,2.00
2022-08-10T17:09:09.359Z,2.05
2022-08-10T17:11:38.714Z,1.98
2022-08-10T17:14:08.944Z,2.00
2022-08-10T17:16:38.240Z,2.00
2022-08-10T17:19:11.581Z,1.98
2022-08-10T17:21:51.721Z,2.08
2022-08-10T17:24:21.465Z,2.13
2022-08-10T17:26:49.643Z,2.00
2022-08-10T17:29:58.166Z,2.30
2022-08-10T17:32:07.744Z,2.00
2022-08-10T17:34:37.838Z,2.03
2022-08-10T17:37:09.140Z,2.38
2022-08-10T17:39:41.144Z,2.42
2022-08-10T17:42:09.580Z,2.30
2022-08-10T17:44:38.085Z,2.25
2022-08-10T17:47:10.865Z,2.30
2022-08-10T17:49:39.755Z,2.00
2022-08-10T17:52:10.062Z,2.00
2022-08-10T17:54:41.390Z,2.40
2022-08-10T17:57:10.846Z,2.10
2022-08-10T17:59:39.271Z,2.28
2022-08-10T18:02:08.670Z,2.30
2022-08-10T18:04:42.104Z,2.42
2022-08-10T18:07:12.190Z,2.30
2022-08-10T18:09:41.746Z,2.05
2022-08-10T18:12:17.761Z,2.15
2022-08-10T18:14:47.968Z,2.35
2022-08-10T18:17:21.545Z,2.28
2022-08-10T18:19:52.983Z,2.42
2022-08-10T18:22:22.505Z,2.30
2022-08-10T18:24:50.647Z,2.80
2022-08-10T18:27:18.904Z,2.60
2022-08-10T18:29:49.720Z,2.70
2022-08-10T18:32:17.926Z,2.80
2022-08-10T18:34:46.011Z,2.60
2022-08-10T18:37:20.117Z,2.67
2022-08-10T18:39:50.555Z,2.60
2022-08-10T18:42:20.797Z,2.65
2022-08-10T18:44:53.669Z,3.17
2022-08-10T18:47:29.116Z,2.55
2022-08-10T18:50:00.982Z,2.70
2022-08-10T18:52:31.037Z,3.03
2022-08-10T18:55:14.474Z,2.90
2022-08-10T18:58:34.196Z,2.83
2022-08-10T19:01:10.096Z,2.85
2022-08-10T19:03:54.931Z,3.25
2022-08-10T19:06:35.759Z,2.85
2022-08-10T19:09:47.300Z,2.60
2022-08-10T19:12:30.591Z,3.33
2022-08-10T19:15:06.528Z,2.80
2022-08-10T19:18:05.848Z,3.35
2022-08-10T19:20:32.645Z,3.10
2022-08-10T19:23:10.208Z,2.85
2022-08-10T19:26:40.726Z,3.20
2022-08-10T19:28:50.055Z,2.67
2022-08-10T19:31:22.728Z,3.30
2022-08-10T19:33:53.689Z,3.22
2022-08-10T19:36:44.496Z,3.25
2022-08-10T19:39:26.407Z,3.03
2022-08-10T19:41:59.988Z,3.10
2022-08-10T19:44:44.208Z,3.17
2022-08-10T19:47:15.337Z,3.30
2022-08-10T19:49:45.547Z,3.20
2022-08-10T19:52:16.966Z,3.42
2022-08-10T19:54:50.395Z,3.90
2022-08-10T19:57:26.431Z,3.45
2022-08-10T20:00:16.050Z,3.35
2022-08-10T20:03:03.441Z,3.50
2022-08-10T20:05:33.541Z,3.40
2022-08-10T20:08:07.176Z,3.58
2022-08-10T20:10:39.155Z,3.40
2022-08-10T20:13:10.304Z,3.50
2022-08-10T20:15:42.030Z,3.33
2022-08-10T20:18:14.284Z,3.65
2022-08-10T20:20:46.125Z,3.53
2022-08-10T20:23:17.492Z,3.88
2022-08-10T20:25:48.510Z,3.90
2022-08-10T20:28:21.614Z,3.85
2022-08-10T20:30:53.917Z,3.80
2022-08-10T20:33:31.330Z,3.92
2022-08-10T20:36:03.596Z,3.95
2022-08-10T20:38:39.245Z,3.97
2022-08-10T20:41:16.767Z,3.60
2022-08-10T20:43:50.866Z,4.13
2022-08-10T20:46:23.903Z,4.20
2022-08-10T20:48:58.146Z,3.90
2022-08-10T20:51:58.447Z,4.10
2022-08-10T20:54:17.310Z,4.30
2022-08-10T20:56:49.773Z,4.10
2022-08-10T21:00:04.617Z,4.32
2022-08-10T21:02:36.816Z,4.38
2022-08-10T21:05:10.639Z,4.10
2022-08-10T21:08:02.590Z,4.22
2022-08-10T21:10:41.566Z,3.95
2022-08-10T21:13:25.597Z,3.90
2022-08-10T21:15:59.487Z,4.10
2022-08-10T21:18:44.638Z,4.18
2022-08-10T21:21:37.586Z,4.40
2022-08-10T21:24:12.120Z,4.13
2022-08-10T21:26:46.105Z,3.80
2022-08-10T21:29:37.917Z,3.75
2022-08-10T21:32:12.341Z,3.88
2022-08-10T21:34:55.120Z,4.00
2022-08-10T21:37:25.826Z,3.72
2022-08-10T21:40:35.325Z,4.10
2022-08-10T21:43:44.794Z,4.20
2022-08-10T21:46:37.231Z,4.38
2022-08-10T21:49:24.625Z,4.22
2022-08-10T21:52:27.502Z,4.10
2022-08-10T21:55:18.848Z,3.78
2022-08-10T21:58:06.924Z,4.05
2022-08-10T22:00:53.375Z,3.72
2022-08-10T22:03:40.127Z,4.15
2022-08-10T22:06:25.870Z,4.40
2022-08-10T22:09:17.584Z,4.03
2022-08-10T22:12:07.533Z,3.88
2022-08-10T22:14:54.361Z,3.92
2022-08-10T22:18:03.440Z,3.97
2022-08-10T22:20:49.723Z,3.65
2022-08-10T22:23:58.037Z,3.75
2022-08-10T22:27:00.644Z,3.78
2022-08-10T22:29:52.482Z,3.92
2022-08-10T22:32:44.079Z,4.32
2022-08-10T22:35:55.372Z,4.10
2022-08-10T22:38:51.353Z,3.90
2022-08-10T22:41:45.297Z,3.88
2022-08-10T22:44:32.384Z,3.70
2022-08-10T22:47:17.816Z,3.80
2022-08-10T22:49:44.773Z,3.50
2022-08-10T22:52:15.573Z,3.60
2022-08-10T22:55:06.463Z,3.80
2022-08-10T22:57:51.759Z,4.10
2022-08-10T23:00:31.357Z,3.70
2022-08-10T23:03:03.699Z,3.40
2022-08-10T23:05:33.502Z,3.60
2022-08-10T23:08:04.682Z,3.55
2022-08-10T23:10:37.037Z,3.42
2022-08-10T23:13:08.019Z,3.60
2022-08-10T23:15:56.161Z,3.47
2022-08-10T23:18:49.102Z,3.63
2022-08-10T23:21:17.522Z,3.55
2022-08-10T23:23:45.704Z,3.63
2022-08-10T23:26:14.189Z,3.50
2022-08-10T23:28:59.239Z,3.55
2022-08-10T23:32:00.685Z,3.53
2022-08-10T23:34:23.930Z,3.58
2022-08-10T23:36:52.320Z,3.17
2022-08-10T23:39:25.394Z,3.20
2022-08-10T23:42:07.006Z,3.50
2022-08-10T23:44:37.000Z,3.65
2022-08-10T23:47:06.787Z,3.50
2022-08-10T23:49:35.962Z,3.50
2022-08-10T23:52:11.158Z,3.10
2022-08-10T23:54:47.122Z,3.50
2022-08-10T23:57:17.169Z,3.45
2022-08-10T23:59:50.972Z,3.20
